createdAt,value
2018-01-28T00:02:24.136Z,16.23
2018-01-28T00:04:52.094Z,13.70
2018-01-28T00:07:20.537Z,16.57
2018-01-28T00:09:48.463Z,16.60
2018-01-28T00:12:16.454Z,14.53
2018-01-28T00:14:44.457Z,18.93
2018-01-28T00:17:12.406Z,16.67
2018-01-28T00:19:40.363Z,12.87
2018-01-28T00:22:08.394Z,16.33
2018-01-28T00:24:36.371Z,12.80
2018-01-28T00:27:04.347Z,13.30
2018-01-28T00:29:32.267Z,13.97
2018-01-28T00:32:00.284Z,15.23
2018-01-28T00:34:28.239Z,14.50
2018-01-28T00:36:56.187Z,13.83
2018-01-28T00:39:25.506Z,17.60
2018-01-28T00:41:53.537Z,13.63
2018-01-28T00:44:21.467Z,15.27
2018-01-28T00:46:49.454Z,15.17
2018-01-28T00:49:17.412Z,12.40
2018-01-28T00:51:45.393Z,14.90
2018-01-28T00:54:13.345Z,13.10
2018-01-28T00:56:41.314Z,18.00
2018-01-28T00:59:09.485Z,13.30
2018-01-28T01:01:37.557Z,16.63
2018-01-28T01:04:05.543Z,14.70
2018-01-28T01:06:33.500Z,16.37
2018-01-28T01:09:01.510Z,16.97
2018-01-28T01:11:29.456Z,14.30
2018-01-28T01:13:57.409Z,18.73
2018-01-28T01:16:25.342Z,20.47
2018-01-28T01:18:53.269Z,15.87
2018-01-28T01:21:22.035Z,17.27
2018-01-28T01:23:50.080Z,18.77
2018-01-28T01:26:18.017Z,15.67
2018-01-28T01:28:45.991Z,18.50
2018-01-28T01:31:13.923Z,14.23
2018-01-28T01:33:41.877Z,16.10
2018-01-28T01:36:09.964Z,18.37
2018-01-28T01:38:37.870Z,14.37
2018-01-28T01:41:05.832Z,13.87
2018-01-28T01:43:34.009Z,13.10
2018-01-28T01:46:02.046Z,14.50
2018-01-28T01:48:29.980Z,14.90
2018-01-28T01:50:58.020Z,14.33
2018-01-28T01:53:26.025Z,16.07
2018-01-28T01:55:53.954Z,13.13
2018-01-28T01:58:21.956Z,12.60
2018-01-28T02:00:49.974Z,14.80
2018-01-28T02:03:18.022Z,13.00
2018-01-28T02:05:45.972Z,11.67
2018-01-28T02:08:13.915Z,14.30
2018-01-28T02:10:41.853Z,12.57
2018-01-28T02:13:09.853Z,13.13
2018-01-28T02:15:37.833Z,13.23
2018-01-28T02:18:05.895Z,12.73
2018-01-28T02:20:34.009Z,11.63
2018-01-28T02:23:02.653Z,13.47
2018-01-28T02:25:30.693Z,11.17
2018-01-28T02:27:58.627Z,10.83
2018-01-28T02:30:26.664Z,12.07
2018-01-28T02:32:54.780Z,13.70
2018-01-28T02:35:22.870Z,13.47
2018-01-28T02:37:50.805Z,12.23
2018-01-28T02:40:18.739Z,11.47
2018-01-28T02:42:46.809Z,11.40
2018-01-28T02:45:14.959Z,9.50
2018-01-28T02:47:42.943Z,10.73
2018-01-28T02:50:10.889Z,10.80
2018-01-28T02:52:38.822Z,10.50
2018-01-28T02:55:06.750Z,9.70
2018-01-28T02:57:34.763Z,9.03
2018-01-28T03:00:02.789Z,7.80
2018-01-28T03:02:30.864Z,9.37
2018-01-28T03:04:58.764Z,8.50
2018-01-28T03:07:26.699Z,9.70
2018-01-28T03:09:54.603Z,9.83
2018-01-28T03:12:22.536Z,9.40
2018-01-28T03:14:50.505Z,7.43
2018-01-28T03:17:18.505Z,9.43
2018-01-28T03:19:47.307Z,8.20
2018-01-28T03:22:15.259Z,9.53
2018-01-28T03:24:43.367Z,8.10
2018-01-28T03:27:11.273Z,6.83
2018-01-28T03:29:39.240Z,8.10
2018-01-28T03:32:07.190Z,7.20
2018-01-28T03:34:35.159Z,7.30
2018-01-28T03:37:03.084Z,6.60
2018-01-28T03:39:31.034Z,7.70
2018-01-28T03:41:58.964Z,8.33
2018-01-28T03:44:26.897Z,8.37
2018-01-28T03:46:54.908Z,9.73
2018-01-28T03:49:22.844Z,8.87
2018-01-28T03:51:50.761Z,8.03
2018-01-28T03:54:18.730Z,9.67
2018-01-28T03:56:46.677Z,10.07
2018-01-28T03:59:14.606Z,9.77
2018-01-28T04:01:42.981Z,9.77
2018-01-28T04:04:10.917Z,9.07
2018-01-28T04:06:38.921Z,10.53
2018-01-28T04:09:07.341Z,9.57
2018-01-28T04:11:35.289Z,9.53
2018-01-28T04:14:03.299Z,10.30
2018-01-28T04:16:31.681Z,8.27
2018-01-28T04:19:00.000Z,9.90
2018-01-28T04:21:27.994Z,8.00
2018-01-28T04:23:55.940Z,8.63
2018-01-28T04:26:24.397Z,10.30
2018-01-28T04:28:52.312Z,9.17
2018-01-28T04:31:20.233Z,10.80
2018-01-28T04:33:48.157Z,11.53
2018-01-28T04:36:16.106Z,13.80
2018-01-28T04:38:44.858Z,15.70
2018-01-28T04:41:12.919Z,14.27
2018-01-28T04:43:40.836Z,18.97
2018-01-28T04:46:08.768Z,13.63
2018-01-28T04:48:36.698Z,14.83
2018-01-28T04:51:04.664Z,17.97
2018-01-28T04:53:32.718Z,16.47
2018-01-28T04:56:00.652Z,16.57
2018-01-28T04:58:29.333Z,18.50
2018-01-28T05:00:57.297Z,16.17
2018-01-28T05:03:25.352Z,24.53
2018-01-28T05:05:53.560Z,18.90
2018-01-28T05:08:21.479Z,20.50
2018-01-28T05:10:49.408Z,21.97
2018-01-28T05:13:17.351Z,21.50
2018-01-28T05:15:45.281Z,15.70
2018-01-28T05:18:13.235Z,21.30
2018-01-28T05:20:41.158Z,23.90
2018-01-28T05:23:09.092Z,16.23
2018-01-28T05:25:37.061Z,24.70
2018-01-28T05:28:04.981Z,18.37
2018-01-28T05:30:32.915Z,25.00
2018-01-28T05:33:00.925Z,23.53
2018-01-28T05:35:28.852Z,21.63
2018-01-28T05:37:56.861Z,17.23
2018-01-28T05:40:24.862Z,17.57
2018-01-28T05:42:52.792Z,22.23
2018-01-28T05:45:20.714Z,17.83
2018-01-28T05:47:48.734Z,24.43
2018-01-28T05:50:16.641Z,39.60
2018-01-28T05:52:44.599Z,22.10
2018-01-28T05:55:12.503Z,21.53
2018-01-28T05:57:40.504Z,19.63
2018-01-28T06:00:08.513Z,23.03
2018-01-28T06:02:36.469Z,24.30
2018-01-28T06:05:04.657Z,23.87
2018-01-28T06:07:33.475Z,25.17
2018-01-28T06:10:01.465Z,20.57
2018-01-28T06:12:29.390Z,20.60
2018-01-28T06:14:57.361Z,20.90
2018-01-28T06:17:25.264Z,29.37
2018-01-28T06:19:53.278Z,23.07
2018-01-28T06:22:21.210Z,23.53
2018-01-28T06:24:49.306Z,20.73
2018-01-28T06:27:17.289Z,19.27
2018-01-28T06:29:45.302Z,24.73
2018-01-28T06:32:13.213Z,26.87
2018-01-28T06:34:41.328Z,17.80
2018-01-28T06:37:09.598Z,24.73
2018-01-28T06:39:37.550Z,32.13
2018-01-28T06:42:05.866Z,19.17
2018-01-28T06:44:33.841Z,24.43
2018-01-28T06:47:02.520Z,23.73
2018-01-28T06:49:30.493Z,29.50
2018-01-28T06:51:58.425Z,26.27
2018-01-28T06:54:26.369Z,19.43
2018-01-28T06:56:54.298Z,32.70
2018-01-28T06:59:22.426Z,34.67
2018-01-28T07:01:50.333Z,30.40
2018-01-28T07:04:18.249Z,21.17
2018-01-28T07:06:46.271Z,28.40
2018-01-28T07:09:14.240Z,31.90
2018-01-28T07:11:42.182Z,28.00
2018-01-28T07:14:10.145Z,24.93
2018-01-28T07:16:38.151Z,33.73
2018-01-28T07:19:06.044Z,30.67
2018-01-28T07:21:33.973Z,51.70
2018-01-28T07:24:01.890Z,31.60
2018-01-28T07:26:29.801Z,27.43
2018-01-28T07:28:57.780Z,31.87
2018-01-28T07:31:25.693Z,26.33
2018-01-28T07:33:53.593Z,25.10
2018-01-28T07:36:21.516Z,24.83
2018-01-28T07:38:49.434Z,26.03
2018-01-28T07:41:17.408Z,23.67
2018-01-28T07:43:45.328Z,28.20
2018-01-28T07:46:13.253Z,21.30
2018-01-28T07:48:46.853Z,25.47
2018-01-28T07:51:14.762Z,29.13
2018-01-28T07:53:42.714Z,27.33
2018-01-28T07:56:10.637Z,31.07
2018-01-28T07:58:38.552Z,26.17
2018-01-28T08:01:06.493Z,26.47
2018-01-28T08:03:34.452Z,24.57
2018-01-28T08:06:02.361Z,33.17
2018-01-28T08:08:31.058Z,26.23
2018-01-28T08:10:59.911Z,29.30
2018-01-28T08:13:27.862Z,36.37
2018-01-28T08:15:55.777Z,29.20
2018-01-28T08:18:23.744Z,31.77
2018-01-28T08:20:51.668Z,26.83
2018-01-28T08:23:19.578Z,29.10
2018-01-28T08:25:47.579Z,24.83
2018-01-28T08:28:19.033Z,28.07
2018-01-28T08:30:46.969Z,24.33
2018-01-28T08:33:14.906Z,21.90
2018-01-28T08:35:42.833Z,26.87
2018-01-28T08:38:10.774Z,31.93
2018-01-28T08:40:38.745Z,16.20
2018-01-28T08:43:06.649Z,23.33
2018-01-28T08:45:34.632Z,28.90
2018-01-28T08:48:02.573Z,29.40
2018-01-28T08:50:30.506Z,23.37
2018-01-28T08:52:58.437Z,25.63
2018-01-28T08:55:26.361Z,27.10
2018-01-28T08:57:54.273Z,22.07
2018-01-28T09:00:22.213Z,25.90
2018-01-28T09:02:50.161Z,37.63
2018-01-28T09:05:18.091Z,31.77
2018-01-28T09:07:46.006Z,30.03
2018-01-28T09:10:13.970Z,24.53
2018-01-28T09:12:41.898Z,33.50
2018-01-28T09:15:09.860Z,23.80
2018-01-28T09:17:37.802Z,22.20
2018-01-28T09:20:05.733Z,22.90
2018-01-28T09:22:33.660Z,39.20
2018-01-28T09:25:01.600Z,23.27
2018-01-28T09:27:29.513Z,27.13
2018-01-28T09:29:57.485Z,36.57
2018-01-28T09:32:25.441Z,27.63
2018-01-28T09:35:03.686Z,22.03
2018-01-28T09:37:35.240Z,21.63
2018-01-28T09:40:03.477Z,22.07
2018-01-28T09:42:31.841Z,26.50
2018-01-28T09:45:01.538Z,41.30
2018-01-28T09:47:29.599Z,23.30
2018-01-28T09:49:58.002Z,24.80
2018-01-28T09:52:26.232Z,31.50
2018-01-28T09:54:54.303Z,26.87
2018-01-28T09:57:25.486Z,23.83
2018-01-28T09:59:53.653Z,24.87
2018-01-28T10:02:22.607Z,26.83
2018-01-28T10:04:51.233Z,29.17
2018-01-28T10:07:22.075Z,26.53
2018-01-28T10:09:50.714Z,26.43
2018-01-28T10:12:18.755Z,32.50
2018-01-28T10:14:47.574Z,26.20
2018-01-28T10:17:15.578Z,20.77
2018-01-28T10:19:44.562Z,20.57
2018-01-28T10:22:13.303Z,23.90
2018-01-28T10:24:41.941Z,31.60
2018-01-28T10:27:10.101Z,23.50
2018-01-28T10:29:38.489Z,30.60
2018-01-28T10:32:06.852Z,26.70
2018-01-28T10:34:36.457Z,28.03
2018-01-28T10:37:04.544Z,23.63
2018-01-28T10:39:33.944Z,38.73
2018-01-28T10:42:02.501Z,33.67
2018-01-28T10:44:31.841Z,28.17
2018-01-28T10:46:59.778Z,42.83
2018-01-28T10:49:28.030Z,34.13
2018-01-28T10:51:56.792Z,36.57
2018-01-28T10:54:29.936Z,19.30
2018-01-28T10:56:58.471Z,29.00
2018-01-28T10:59:27.010Z,27.37
2018-01-28T11:01:58.127Z,25.70
2018-01-28T11:04:26.164Z,31.53
2018-01-28T11:06:54.307Z,24.07
2018-01-28T11:09:23.980Z,21.23
2018-01-28T11:11:52.777Z,23.00
2018-01-28T11:14:25.241Z,42.67
2018-01-28T11:16:55.601Z,24.03
2018-01-28T11:19:27.232Z,36.50
2018-01-28T11:21:56.248Z,22.23
2018-01-28T11:24:25.834Z,36.20
2018-01-28T11:26:55.032Z,21.27
2018-01-28T11:29:24.419Z,25.10
2018-01-28T11:31:54.553Z,28.33
2018-01-28T11:34:25.709Z,26.13
2018-01-28T11:36:57.380Z,32.00
2018-01-28T11:39:26.647Z,30.77
2018-01-28T11:41:58.134Z,25.57
2018-01-28T11:44:28.249Z,26.10
2018-01-28T11:46:57.657Z,28.90
2018-01-28T11:49:27.228Z,25.53
2018-01-28T11:51:57.385Z,25.70
2018-01-28T11:54:26.766Z,26.13
2018-01-28T11:56:56.496Z,30.27
2018-01-28T11:59:26.543Z,33.57
2018-01-28T12:01:58.329Z,26.20
2018-01-28T12:04:26.373Z,24.90
2018-01-28T12:06:55.606Z,24.50
2018-01-28T12:09:24.084Z,30.97
2018-01-28T12:11:52.815Z,30.07
2018-01-28T12:14:21.870Z,29.97
2018-01-28T12:16:52.175Z,26.57
2018-01-28T12:19:21.228Z,25.50
2018-01-28T12:21:51.312Z,29.80
2018-01-28T12:24:22.556Z,31.83
2018-01-28T12:26:52.162Z,30.73
2018-01-28T12:29:22.563Z,30.40
2018-01-28T12:31:53.704Z,22.97
2018-01-28T12:34:23.035Z,25.57
2018-01-28T12:36:51.763Z,27.73
2018-01-28T12:39:21.091Z,27.33
2018-01-28T12:41:50.154Z,27.03
2018-01-28T12:44:19.287Z,20.83
2018-01-28T12:46:48.479Z,28.03
2018-01-28T12:49:17.145Z,28.60
2018-01-28T12:51:47.549Z,25.40
2018-01-28T12:54:15.899Z,25.80
2018-01-28T12:56:45.180Z,27.43
2018-01-28T12:59:15.012Z,34.77
2018-01-28T13:01:44.108Z,22.60
2018-01-28T13:04:12.463Z,22.80
2018-01-28T13:06:44.879Z,26.00
2018-01-28T13:09:15.066Z,22.87
2018-01-28T13:11:43.924Z,24.73
2018-01-28T13:14:13.067Z,24.00
2018-01-28T13:16:44.390Z,24.93
2018-01-28T13:19:14.113Z,25.00
2018-01-28T13:21:42.109Z,20.20
2018-01-28T13:24:13.900Z,27.37
2018-01-28T13:26:42.687Z,27.63
2018-01-28T13:29:11.110Z,35.70
2018-01-28T13:31:40.440Z,25.30
2018-01-28T13:34:08.844Z,22.07
2018-01-28T13:36:37.236Z,29.23
2018-01-28T13:39:05.780Z,24.23
2018-01-28T13:41:35.065Z,20.47
2018-01-28T13:44:04.016Z,22.10
2018-01-28T13:46:33.293Z,20.87
2018-01-28T13:49:03.230Z,25.33
2018-01-28T13:51:32.645Z,22.97
2018-01-28T13:54:01.462Z,27.83
2018-01-28T13:56:31.822Z,23.97
2018-01-28T13:59:01.733Z,21.80
2018-01-28T14:01:30.761Z,25.67
2018-01-28T14:03:59.439Z,26.43
2018-01-28T14:06:28.145Z,23.40
2018-01-28T14:08:57.126Z,20.80
2018-01-28T14:11:25.568Z,25.03
2018-01-28T14:13:57.307Z,24.50
2018-01-28T14:16:26.030Z,24.83
2018-01-28T14:18:55.005Z,28.30
2018-01-28T14:21:24.128Z,24.63
2018-01-28T14:23:52.266Z,25.50
2018-01-28T14:26:20.896Z,27.20
2018-01-28T14:28:49.872Z,29.23
2018-01-28T14:31:20.112Z,27.37
2018-01-28T14:33:48.561Z,25.23
2018-01-28T14:36:18.275Z,32.03
2018-01-28T14:38:47.097Z,29.07
2018-01-28T14:41:16.951Z,24.00
2018-01-28T14:43:47.386Z,38.37
2018-01-28T14:46:15.952Z,24.50
2018-01-28T14:48:47.129Z,24.03
2018-01-28T14:51:17.354Z,31.20
2018-01-28T14:53:48.156Z,26.40
2018-01-28T14:56:19.198Z,28.73
2018-01-28T14:58:48.906Z,27.73
2018-01-28T15:01:19.232Z,36.83
2018-01-28T15:03:47.918Z,29.17
2018-01-28T15:06:16.291Z,22.50
2018-01-28T15:08:46.094Z,23.70
2018-01-28T15:11:15.243Z,22.53
2018-01-28T15:13:43.498Z,34.00
2018-01-28T15:16:12.263Z,41.30
2018-01-28T15:18:41.585Z,97.80
2018-01-28T15:21:11.429Z,63.53
2018-01-28T15:23:42.306Z,35.37
2018-01-28T15:26:12.979Z,26.70
2018-01-28T15:28:42.991Z,42.13
2018-01-28T15:31:11.121Z,25.80
2018-01-28T15:33:40.537Z,34.90
2018-01-28T15:36:09.699Z,30.43
2018-01-28T15:38:37.811Z,22.50
2018-01-28T15:41:06.811Z,27.93
2018-01-28T15:43:35.997Z,29.43
2018-01-28T15:46:04.010Z,26.97
2018-01-28T15:48:31.973Z,19.20
2018-01-28T15:51:00.043Z,29.13
2018-01-28T15:53:28.013Z,29.33
2018-01-28T15:55:56.062Z,29.80
2018-01-28T15:58:24.055Z,29.70
2018-01-28T16:00:53.375Z,33.60
2018-01-28T16:03:21.366Z,36.20
2018-01-28T16:05:49.329Z,24.40
2018-01-28T16:08:17.347Z,26.67
2018-01-28T16:10:45.910Z,25.20
2018-01-28T16:13:14.735Z,31.10
2018-01-28T16:15:42.741Z,31.70
2018-01-28T16:18:10.740Z,28.80
2018-01-28T16:20:38.779Z,20.53
2018-01-28T16:23:06.796Z,27.03
2018-01-28T16:25:34.797Z,20.70
2018-01-28T16:28:02.846Z,23.80
2018-01-28T16:30:30.857Z,23.77
2018-01-28T16:32:58.857Z,19.37
2018-01-28T16:35:26.927Z,24.17
2018-01-28T16:37:54.882Z,19.87
2018-01-28T16:40:22.912Z,21.87
2018-01-28T16:42:50.998Z,18.43
2018-01-28T16:45:20.239Z,12.47
2018-01-28T16:47:48.611Z,11.70
2018-01-28T16:50:16.564Z,17.70
2018-01-28T16:52:44.663Z,22.07
2018-01-28T16:55:13.076Z,14.30
2018-01-28T16:57:41.902Z,16.00
2018-01-28T17:00:09.898Z,15.93
2018-01-28T17:02:37.918Z,15.67
2018-01-28T17:05:05.953Z,19.17
2018-01-28T17:07:33.983Z,11.30
2018-01-28T17:10:02.956Z,18.50
2018-01-28T17:12:31.057Z,11.83
2018-01-28T17:14:59.153Z,20.87
2018-01-28T17:17:27.390Z,10.60
2018-01-28T17:19:55.374Z,14.60
2018-01-28T17:22:23.465Z,9.47
2018-01-28T17:24:52.126Z,9.43
2018-01-28T17:27:20.142Z,7.73
2018-01-28T17:29:48.122Z,7.10
2018-01-28T17:32:16.204Z,10.90
2018-01-28T17:34:44.277Z,7.97
2018-01-28T17:37:12.356Z,12.07
2018-01-28T17:39:40.600Z,6.90
2018-01-28T17:42:09.009Z,9.00
2018-01-28T17:44:37.082Z,9.10
2018-01-28T17:47:05.115Z,6.67
2018-01-28T17:49:33.817Z,6.57
2018-01-28T17:52:02.369Z,8.33
2018-01-28T17:54:30.371Z,5.70
2018-01-28T17:56:58.412Z,5.60
2018-01-28T17:59:26.395Z,4.13
2018-01-28T18:01:54.392Z,6.60
2018-01-28T18:04:23.767Z,6.03
2018-01-28T18:06:51.851Z,9.30
2018-01-28T18:09:20.832Z,5.80
2018-01-28T18:11:48.908Z,4.00
2018-01-28T18:14:16.996Z,8.13
2018-01-28T18:16:44.975Z,6.47
2018-01-28T18:19:13.735Z,5.80
2018-01-28T18:21:41.719Z,7.60
2018-01-28T18:24:09.670Z,6.30
2018-01-28T18:26:37.750Z,7.67
2018-01-28T18:29:05.763Z,6.03
2018-01-28T18:31:33.810Z,5.80
2018-01-28T18:34:01.884Z,6.67
2018-01-28T18:36:29.935Z,5.97
2018-01-28T18:38:58.740Z,8.47
2018-01-28T18:41:27.234Z,6.20
2018-01-28T18:43:55.293Z,6.47
2018-01-28T18:46:23.467Z,5.20
2018-01-28T18:48:51.419Z,7.00
2018-01-28T18:51:19.429Z,5.50
2018-01-28T18:53:47.412Z,38.70
2018-01-28T18:56:16.383Z,19.40
2018-01-28T18:58:44.335Z,9.83
2018-01-28T19:01:12.363Z,8.03
2018-01-28T19:03:40.287Z,9.00
2018-01-28T19:06:08.550Z,8.10
2018-01-28T19:08:36.851Z,7.93
2018-01-28T19:11:04.836Z,7.70
2018-01-28T19:13:33.173Z,22.30
2018-01-28T19:16:01.223Z,12.77
2018-01-28T19:18:29.290Z,8.43
2018-01-28T19:20:57.431Z,11.17
2018-01-28T19:23:25.398Z,8.43
2018-01-28T19:25:53.471Z,10.73
2018-01-28T19:28:22.230Z,8.30
2018-01-28T19:30:50.233Z,6.90
2018-01-28T19:33:18.466Z,7.57
2018-01-28T19:35:48.706Z,8.43
2018-01-28T19:38:17.316Z,7.40
2018-01-28T19:40:45.374Z,8.30
2018-01-28T19:43:13.513Z,7.33
2018-01-28T19:45:41.637Z,7.80
2018-01-28T19:48:10.686Z,8.00
2018-01-28T19:50:38.761Z,7.57
2018-01-28T19:53:06.925Z,7.40
2018-01-28T19:55:34.934Z,7.70
2018-01-28T19:58:03.638Z,7.87
2018-01-28T20:00:31.668Z,11.37
2018-01-28T20:03:00.768Z,8.53
2018-01-28T20:05:29.225Z,10.40
2018-01-28T20:07:57.976Z,7.87
2018-01-28T20:10:25.908Z,9.40
2018-01-28T20:12:53.842Z,8.00
2018-01-28T20:15:22.431Z,9.77
2018-01-28T20:17:50.347Z,11.07
2018-01-28T20:20:18.272Z,9.77
2018-01-28T20:22:46.840Z,11.17
2018-01-28T20:25:14.860Z,8.53
2018-01-28T20:27:42.812Z,8.30
2018-01-28T20:30:10.714Z,8.70
2018-01-28T20:32:38.672Z,10.87
2018-01-28T20:35:06.597Z,9.77
2018-01-28T20:37:34.549Z,9.53
2018-01-28T20:40:02.467Z,9.23
2018-01-28T20:42:30.545Z,10.23
2018-01-28T20:44:59.096Z,8.93
2018-01-28T20:47:27.833Z,10.60
2018-01-28T20:49:56.762Z,7.93
2018-01-28T20:52:25.242Z,9.50
2018-01-28T20:54:53.541Z,14.87
2018-01-28T20:57:21.727Z,10.33
2018-01-28T20:59:49.829Z,12.03
2018-01-28T21:02:18.062Z,7.93
2018-01-28T21:04:46.236Z,9.40
2018-01-28T21:07:15.230Z,7.40
2018-01-28T21:09:43.149Z,16.57
2018-01-28T21:12:11.791Z,7.80
2018-01-28T21:14:39.781Z,5.50
2018-01-28T21:17:07.826Z,6.40
2018-01-28T21:19:35.967Z,4.60
2018-01-28T21:22:04.891Z,5.77
2018-01-28T21:24:33.745Z,5.83
2018-01-28T21:27:01.854Z,7.07
2018-01-28T21:29:29.874Z,4.23
2018-01-28T21:31:57.789Z,3.37
2018-01-28T21:34:26.888Z,4.97
2018-01-28T21:36:54.763Z,2.53
2018-01-28T21:39:22.720Z,2.73
2018-01-28T21:41:50.728Z,3.93
2018-01-28T21:44:20.339Z,2.53
2018-01-28T21:46:48.681Z,3.10
2018-01-28T21:51:51.529Z,2.93
2018-01-28T21:54:19.529Z,2.80
2018-01-28T21:56:47.536Z,2.97
2018-01-28T21:59:16.141Z,2.50
2018-01-28T22:01:44.181Z,3.00
2018-01-28T22:04:12.196Z,2.90
2018-01-28T22:06:40.222Z,19.03
2018-01-28T22:09:10.031Z,58.60
2018-01-28T22:11:41.715Z,27.73
2018-01-28T22:14:10.491Z,2.90
2018-01-28T22:16:40.478Z,1.80
2018-01-28T22:19:08.571Z,1.30
2018-01-28T22:21:36.950Z,1.53
2018-01-28T22:24:04.994Z,1.40
2018-01-28T22:26:33.032Z,1.30
2018-01-28T22:29:01.058Z,1.03
2018-01-28T22:31:29.033Z,1.27
2018-01-28T22:33:57.812Z,1.23
2018-01-28T22:36:25.764Z,1.10
2018-01-28T22:38:54.512Z,1.30
2018-01-28T22:41:22.677Z,1.63
2018-01-28T22:43:50.738Z,2.23
2018-01-28T22:46:18.793Z,2.00
2018-01-28T22:48:47.394Z,2.13
2018-01-28T22:51:15.370Z,2.07
2018-01-28T22:53:43.573Z,2.40
2018-01-28T22:56:11.616Z,2.20
2018-01-28T22:58:41.737Z,2.60
2018-01-28T23:01:09.868Z,2.20
2018-01-28T23:03:37.924Z,2.37
2018-01-28T23:06:06.237Z,2.30
2018-01-28T23:08:34.531Z,2.90
2018-01-28T23:11:02.586Z,2.20
2018-01-28T23:13:31.609Z,2.03
2018-01-28T23:16:00.381Z,2.17
2018-01-28T23:18:29.230Z,2.13
2018-01-28T23:20:57.640Z,2.70
2018-01-28T23:23:25.792Z,2.40
2018-01-28T23:25:54.067Z,2.30
2018-01-28T23:28:22.163Z,4.33
2018-01-28T23:30:50.288Z,2.17
2018-01-28T23:33:19.537Z,1.97
2018-01-28T23:35:48.552Z,3.00
2018-01-28T23:38:17.730Z,2.90
2018-01-28T23:40:46.809Z,2.97
2018-01-28T23:43:15.008Z,2.33
2018-01-28T23:45:43.094Z,2.97
2018-01-28T23:48:11.242Z,3.70
2018-01-28T23:50:41.264Z,2.30
2018-01-28T23:53:11.469Z,2.50
2018-01-28T23:55:39.664Z,3.53
2018-01-28T23:58:07.858Z,2.70
